Time;durP1;ratioP1;P1;durP2;ratioP2;P2;SDS_P1;SDS_P2;PMS_P1;PMS_P2;Temp;Humidity;BMP_temperature;BMP_pressure;BME280_temperature;BME280_humidity;BME280_pressure;Samples;Min_cycle;Max_cycle;Signal;HPM_P1;HPM_P2
2023/10/19 00:00:49;;;;;;;5.33;4.93;;;8.50;1.00;;;;;;5052703;28;20463;-63
2023/10/19 00:03:16;;;;;;;6.40;5.10;;;8.50;1.00;;;;;;5052872;28;20418;-69
2023/10/19 00:05:43;;;;;;;6.40;5.80;;;8.40;1.00;;;;;;5051934;28;20434;-64
2023/10/19 00:08:15;;;;;;;10.60;6.13;;;8.40;1.00;;;;;;5052726;28;20406;-63
2023/10/19 00:10:44;;;;;;;6.20;5.33;;;8.50;1.00;;;;;;5051607;28;20441;-64
2023/10/19 00:13:14;;;;;;;8.20;6.23;;;8.50;1.00;;;;;;5052600;28;20446;-64
2023/10/19 00:15:47;;;;;;;5.20;4.70;;;8.50;1.00;;;;;;5051879;28;20408;-62
2023/10/19 00:23:18;;;;;;;6.50;5.90;;;8.40;1.00;;;;;;5052665;28;20410;-65
2023/10/19 00:25:49;;;;;;;5.67;4.93;;;8.50;1.00;;;;;;5051253;28;20415;-67
2023/10/19 00:28:17;;;;;;;8.67;5.50;;;8.50;1.00;;;;;;5052586;28;20398;-64
2023/10/19 00:30:44;;;;;;;7.37;5.30;;;8.40;1.00;;;;;;5051371;28;20406;-63
2023/10/19 00:33:32;;;;;;;8.10;6.90;;;8.50;1.00;;;;;;5052485;28;20460;-63
2023/10/19 00:36:08;;;;;;;15.47;6.10;;;8.40;1.00;;;;;;5051359;28;20448;-66
2023/10/19 00:38:56;;;;;;;9.20;5.97;;;8.50;1.00;;;;;;5051451;28;20408;-65
2023/10/19 00:41:27;;;;;;;7.07;6.37;;;8.50;1.00;;;;;;5052416;28;20412;-62
2023/10/19 00:46:50;;;;;;;14.27;6.57;;;8.50;1.00;;;;;;5056891;28;20425;-66
2023/10/19 00:49:16;;;;;;;7.43;6.07;;;8.50;1.00;;;;;;5052300;28;20433;-68
2023/10/19 00:54:38;;;;;;;7.53;6.27;;;8.40;1.00;;;;;;5052468;28;20384;-64
2023/10/19 00:57:09;;;;;;;7.43;6.70;;;8.40;1.00;;;;;;5052173;28;20475;-65
2023/10/19 00:59:39;;;;;;;9.53;7.07;;;8.50;1.00;;;;;;5052232;28;20394;-63
2023/10/19 01:02:17;;;;;;;8.10;6.60;;;8.60;1.00;;;;;;5052189;28;20410;-63
2023/10/19 01:04:45;;;;;;;8.07;6.53;;;8.60;1.00;;;;;;5050257;28;20426;-63
2023/10/19 01:09:53;;;;;;;10.30;7.30;;;8.70;1.00;;;;;;5052312;28;20758;-68
2023/10/19 01:12:25;;;;;;;11.27;7.53;;;8.70;1.00;;;;;;5052127;28;20508;-64
2023/10/19 01:17:45;;;;;;;14.73;7.20;;;8.60;1.00;;;;;;5052160;28;20451;-64
2023/10/19 01:28:16;;;;;;;9.37;6.40;;;8.70;1.00;;;;;;5051978;28;20482;-64
2023/10/19 01:30:44;;;;;;;6.93;6.20;;;8.70;1.00;;;;;;5052118;28;20747;-62
2023/10/19 01:33:16;;;;;;;7.80;6.20;;;8.70;1.00;;;;;;5052142;28;20423;-63
2023/10/19 01:38:30;;;;;;;7.13;6.30;;;8.70;1.00;;;;;;5054304;28;20454;-63
2023/10/19 01:41:00;;;;;;;9.60;6.03;;;8.70;1.00;;;;;;5054579;28;20949;-62
2023/10/19 01:43:32;;;;;;;6.43;5.83;;;8.70;1.00;;;;;;5055362;28;20413;-64
2023/10/19 01:46:04;;;;;;;8.60;7.80;;;8.70;1.00;;;;;;5054501;28;20942;-63
2023/10/19 01:48:33;;;;;;;8.27;7.47;;;8.60;1.00;;;;;;5055540;28;20414;-64
2023/10/19 01:51:10;;;;;;;7.70;6.73;;;8.60;1.00;;;;;;5054137;28;20414;-66
2023/10/19 01:53:40;;;;;;;10.30;7.77;;;8.60;1.00;;;;;;5055159;28;20458;-65
2023/10/19 01:56:09;;;;;;;14.83;7.30;;;8.60;1.00;;;;;;5053102;28;20454;-63
2023/10/19 01:58:36;;;;;;;7.47;6.77;;;8.60;1.00;;;;;;5054336;28;20397;-65
2023/10/19 02:03:41;;;;;;;10.50;7.30;;;8.70;1.00;;;;;;5055004;28;20848;-64
2023/10/19 02:06:16;;;;;;;10.17;8.00;;;8.70;1.00;;;;;;5053997;28;20449;-65
2023/10/19 02:08:50;;;;;;;11.47;8.00;;;8.70;1.00;;;;;;5055003;28;20417;-64
2023/10/19 02:11:20;;;;;;;10.80;8.10;;;8.70;1.00;;;;;;5055002;28;20463;-65
2023/10/19 02:13:47;;;;;;;9.03;7.83;;;8.70;1.00;;;;;;5054878;28;20537;-63
2023/10/19 02:16:16;;;;;;;9.10;8.00;;;8.70;1.00;;;;;;5052397;28;20967;-62
2023/10/19 02:18:45;;;;;;;10.40;8.30;;;8.70;1.00;;;;;;5053897;28;20770;-63
2023/10/19 02:21:14;;;;;;;8.63;7.60;;;8.70;1.00;;;;;;5054655;28;20421;-67
2023/10/19 02:23:43;;;;;;;9.97;8.97;;;8.80;1.00;;;;;;5054779;28;20472;-63
2023/10/19 02:26:09;;;;;;;20.03;8.23;;;8.70;1.00;;;;;;5053660;28;20444;-63
2023/10/19 02:28:38;;;;;;;11.63;7.40;;;8.80;1.00;;;;;;5054520;28;20413;-66
2023/10/19 02:31:15;;;;;;;11.60;9.07;;;8.80;1.00;;;;;;5054757;28;20761;-64
2023/10/19 02:34:00;;;;;;;10.43;8.00;;;8.80;1.00;;;;;;5054555;28;20429;-63
2023/10/19 02:36:30;;;;;;;12.97;9.00;;;8.80;1.00;;;;;;5053703;28;20983;-63
2023/10/19 02:38:59;;;;;;;9.97;8.93;;;8.80;1.00;;;;;;5053360;28;20389;-66
2023/10/19 02:41:29;;;;;;;9.93;8.13;;;8.80;1.00;;;;;;5054297;28;20952;-63
2023/10/19 02:44:30;;;;;;;14.27;8.47;;;8.80;1.00;;;;;;5054244;28;20907;-66
2023/10/19 02:46:53;;;;;;;14.63;9.97;;;8.80;1.00;;;;;;5053951;28;20414;-63
2023/10/19 02:49:21;;;;;;;12.70;8.70;;;8.80;1.00;;;;;;5053910;28;20415;-65
2023/10/19 02:51:48;;;;;;;13.50;9.97;;;8.80;1.00;;;;;;5054217;28;20886;-65
2023/10/19 02:54:22;;;;;;;10.87;9.30;;;8.80;1.00;;;;;;5054028;28;20375;-65
2023/10/19 02:56:51;;;;;;;14.30;8.23;;;8.80;1.00;;;;;;5052704;28;20790;-62
2023/10/19 02:59:24;;;;;;;14.70;9.20;;;8.80;1.00;;;;;;5053565;28;20399;-63
2023/10/19 03:02:04;;;;;;;10.83;9.10;;;8.80;1.00;;;;;;5054146;28;20441;-64
2023/10/19 03:04:35;;;;;;;11.30;9.10;;;8.90;1.00;;;;;;5053089;28;20398;-72
2023/10/19 03:07:02;;;;;;;11.00;9.50;;;8.90;1.00;;;;;;5053922;28;20406;-63
2023/10/19 03:11:59;;;;;;;13.10;9.97;;;8.90;1.00;;;;;;5053811;28;20447;-67
2023/10/19 03:14:25;;;;;;;11.93;9.20;;;8.90;1.00;;;;;;5053545;28;20166;-65
2023/10/19 03:16:52;;;;;;;16.60;9.30;;;9.00;1.00;;;;;;5051976;28;20388;-67
2023/10/19 03:19:18;;;;;;;13.93;9.40;;;9.00;1.00;;;;;;5053423;28;20392;-64
2023/10/19 03:21:44;;;;;;;13.00;9.50;;;9.00;1.00;;;;;;5053787;28;20374;-64
2023/10/19 03:24:23;;;;;;;13.93;9.17;;;9.00;1.00;;;;;;5053573;28;20396;-63
2023/10/19 03:26:49;;;;;;;10.33;9.23;;;9.00;1.00;;;;;;5051481;28;20187;-64
2023/10/19 03:29:22;;;;;;;18.07;9.50;;;9.00;1.00;;;;;;5053452;28;20408;-68
2023/10/19 03:31:48;;;;;;;11.27;9.07;;;9.00;1.00;;;;;;5053550;28;20537;-63
2023/10/19 03:34:17;;;;;;;13.87;9.00;;;9.00;1.00;;;;;;5052386;28;20411;-68
2023/10/19 03:36:43;;;;;;;12.60;9.53;;;9.00;1.00;;;;;;5052253;28;20187;-65
2023/10/19 03:39:13;;;;;;;13.43;9.00;;;9.00;1.00;;;;;;5053499;28;20404;-63
2023/10/19 03:41:44;;;;;;;13.73;9.37;;;9.10;1.00;;;;;;5053282;28;20448;-64
2023/10/19 03:44:18;;;;;;;14.07;9.10;;;9.00;1.00;;;;;;5053239;28;20372;-64
2023/10/19 03:46:53;;;;;;;12.60;9.00;;;9.10;1.00;;;;;;5052147;28;20943;-65
2023/10/19 03:49:20;;;;;;;14.67;9.57;;;9.10;1.00;;;;;;5053172;28;20414;-64
2023/10/19 03:51:59;;;;;;;11.30;10.13;;;9.10;1.00;;;;;;5052571;28;20380;-64
2023/10/19 03:54:27;;;;;;;15.90;10.30;;;9.10;1.00;;;;;;5052569;28;20373;-63
2023/10/19 03:56:53;;;;;;;10.00;8.93;;;9.10;1.00;;;;;;5052262;28;20427;-63
2023/10/19 03:59:34;;;;;;;16.47;10.50;;;9.20;1.00;;;;;;5053010;28;20427;-63
2023/10/19 04:02:00;;;;;;;13.97;9.77;;;9.10;1.00;;;;;;5052365;28;20372;-63
2023/10/19 04:04:29;;;;;;;14.63;10.30;;;9.20;1.00;;;;;;5052658;28;20453;-64
2023/10/19 04:06:58;;;;;;;12.93;8.93;;;9.20;1.00;;;;;;5052144;28;20486;-63
2023/10/19 04:09:28;;;;;;;11.30;8.47;;;9.20;1.00;;;;;;5051839;28;20432;-63
2023/10/19 04:11:56;;;;;;;12.53;9.60;;;9.20;1.00;;;;;;5052763;28;20516;-67
2023/10/19 04:14:22;;;;;;;12.37;8.67;;;9.20;1.00;;;;;;5052899;28;20368;-64
2023/10/19 04:16:49;;;;;;;13.70;9.03;;;9.30;1.00;;;;;;5051796;28;20441;-63
2023/10/19 04:19:15;;;;;;;14.23;10.03;;;9.20;1.00;;;;;;5052765;28;20391;-65
2023/10/19 04:21:46;;;;;;;14.10;10.43;;;9.30;1.00;;;;;;5052842;28;20860;-62
2023/10/19 04:24:13;;;;;;;16.13;9.93;;;9.20;1.00;;;;;;5052708;28;20364;-63
2023/10/19 04:26:39;;;;;;;12.67;8.67;;;9.20;1.00;;;;;;5051119;28;20407;-64
2023/10/19 04:29:13;;;;;;;11.37;9.13;;;9.20;1.00;;;;;;5051975;28;20420;-64
2023/10/19 04:32:00;;;;;;;13.53;8.93;;;9.10;1.00;;;;;;5052520;28;20407;-63
2023/10/19 04:34:25;;;;;;;12.97;9.43;;;9.20;1.00;;;;;;5052435;28;20427;-64
2023/10/19 04:36:52;;;;;;;16.00;8.97;;;9.20;1.00;;;;;;5051644;28;20419;-63
2023/10/19 04:39:20;;;;;;;14.10;9.43;;;9.20;1.00;;;;;;5052545;28;20562;-62
2023/10/19 04:41:48;;;;;;;10.00;8.80;;;9.20;1.00;;;;;;5051370;28;20455;-63
2023/10/19 04:44:15;;;;;;;12.93;8.43;;;9.20;1.00;;;;;;5052445;28;20411;-63
2023/10/19 04:46:41;;;;;;;13.07;8.83;;;9.20;1.00;;;;;;5051382;28;20451;-67
2023/10/19 04:49:07;;;;;;;10.90;9.07;;;9.20;1.00;;;;;;5051476;28;20411;-63
2023/10/19 04:51:36;;;;;;;10.23;8.60;;;9.30;1.00;;;;;;5052119;28;20410;-63
2023/10/19 04:54:02;;;;;;;13.00;9.37;;;9.30;1.00;;;;;;5052865;28;20163;-62
2023/10/19 04:56:28;;;;;;;15.20;8.80;;;9.20;1.00;;;;;;5051521;28;20505;-63
2023/10/19 04:58:53;;;;;;;13.70;9.47;;;9.20;1.00;;;;;;5052233;28;20388;-64
2023/10/19 05:01:19;;;;;;;12.03;9.40;;;9.20;1.00;;;;;;5051260;28;20175;-63
2023/10/19 05:03:45;;;;;;;15.40;10.33;;;9.20;1.00;;;;;;5051401;28;20210;-63
2023/10/19 05:06:11;;;;;;;14.27;10.73;;;9.20;1.00;;;;;;5050762;28;20299;-66
2023/10/19 05:08:37;;;;;;;10.83;8.83;;;9.10;1.00;;;;;;5051511;28;20438;-63
2023/10/19 05:11:03;;;;;;;11.43;9.37;;;9.20;1.00;;;;;;5052241;28;20176;-66
2023/10/19 05:13:31;;;;;;;10.53;9.13;;;9.20;1.00;;;;;;5055734;28;20486;-63
2023/10/19 05:15:58;;;;;;;11.17;8.63;;;9.20;1.00;;;;;;5055070;28;20471;-64
2023/10/19 05:18:25;;;;;;;14.47;10.00;;;9.20;1.00;;;;;;5056155;28;20900;-65
2023/10/19 05:20:55;;;;;;;11.73;7.97;;;9.20;1.00;;;;;;5055972;28;20486;-64
2023/10/19 05:23:24;;;;;;;11.80;8.80;;;9.20;1.00;;;;;;5055714;28;20801;-66
2023/10/19 05:25:53;;;;;;;11.00;8.93;;;9.20;1.00;;;;;;5054416;28;22441;-66
2023/10/19 05:28:19;;;;;;;9.20;8.17;;;9.20;1.00;;;;;;5055264;28;20405;-63
2023/10/19 05:30:45;;;;;;;12.40;8.33;;;9.20;1.00;;;;;;5055669;28;20372;-62
2023/10/19 05:33:11;;;;;;;10.77;7.70;;;9.20;1.00;;;;;;5055679;28;20451;-67
2023/10/19 05:35:40;;;;;;;14.00;9.23;;;9.20;1.00;;;;;;5054671;28;20156;-63
2023/10/19 05:38:07;;;;;;;10.10;8.50;;;9.20;1.00;;;;;;5055564;28;20406;-65
2023/10/19 05:40:33;;;;;;;13.23;8.53;;;9.20;1.00;;;;;;5055522;28;20399;-67
2023/10/19 05:43:01;;;;;;;14.97;8.30;;;9.20;1.00;;;;;;5054315;28;20785;-63
2023/10/19 05:45:28;;;;;;;11.97;7.80;;;9.20;1.00;;;;;;5054235;28;20400;-63
2023/10/19 05:48:00;;;;;;;12.20;7.70;;;9.30;1.00;;;;;;5054411;28;20937;-65
2023/10/19 05:50:28;;;;;;;10.20;8.03;;;9.30;1.00;;;;;;5055571;28;20430;-65
2023/10/19 05:52:54;;;;;;;9.63;8.33;;;9.30;1.00;;;;;;5055238;28;20805;-63
2023/10/19 05:55:21;;;;;;;11.40;8.30;;;9.30;1.00;;;;;;5054323;28;20399;-63
2023/10/19 05:57:47;;;;;;;9.50;8.53;;;9.30;1.00;;;;;;5055224;28;20185;-63
2023/10/19 06:00:13;;;;;;;14.53;8.03;;;9.30;1.00;;;;;;5055187;28;20410;-63
2023/10/19 06:02:43;;;;;;;11.30;8.37;;;9.30;1.00;;;;;;5054902;28;20416;-63
2023/10/19 06:05:09;;;;;;;10.33;8.03;;;9.30;1.00;;;;;;5053688;28;20790;-66
2023/10/19 06:07:35;;;;;;;11.00;7.80;;;9.30;1.00;;;;;;5054083;28;20417;-63
2023/10/19 06:10:04;;;;;;;12.40;8.97;;;9.30;1.00;;;;;;5054986;28;20673;-65
2023/10/19 06:12:31;;;;;;;15.90;9.43;;;9.30;1.00;;;;;;5053763;28;20660;-63
2023/10/19 06:14:57;;;;;;;14.03;7.90;;;9.30;1.00;;;;;;5053831;28;20967;-64
2023/10/19 06:17:23;;;;;;;13.57;8.97;;;9.20;1.00;;;;;;5054684;28;20420;-65
2023/10/19 06:19:49;;;;;;;10.17;7.23;;;9.20;1.00;;;;;;5054747;28;20178;-64
2023/10/19 06:22:17;;;;;;;12.27;8.10;;;9.20;1.00;;;;;;5054709;28;20393;-63
2023/10/19 06:24:43;;;;;;;9.53;8.57;;;9.20;1.00;;;;;;5053201;28;20402;-64
2023/10/19 06:27:10;;;;;;;13.33;7.80;;;9.30;1.00;;;;;;5053411;28;21007;-64
2023/10/19 06:29:35;;;;;;;11.23;8.80;;;9.30;1.00;;;;;;5054585;28;20178;-63
2023/10/19 06:32:02;;;;;;;9.07;8.13;;;9.30;1.00;;;;;;5054069;28;20447;-63
2023/10/19 06:34:28;;;;;;;8.07;6.77;;;9.30;1.00;;;;;;5054455;28;20196;-65
2023/10/19 06:36:54;;;;;;;10.50;8.83;;;9.30;1.00;;;;;;5053819;28;20395;-63
2023/10/19 06:39:21;;;;;;;10.33;8.13;;;9.20;1.00;;;;;;5054328;28;20434;-64
2023/10/19 06:41:47;;;;;;;9.60;8.10;;;9.20;1.00;;;;;;5054413;28;20892;-63
2023/10/19 06:44:13;;;;;;;16.40;8.33;;;9.20;1.00;;;;;;5053875;28;20400;-63
2023/10/19 06:46:39;;;;;;;16.67;8.87;;;9.20;1.00;;;;;;5051714;28;20439;-63
2023/10/19 06:49:05;;;;;;;9.97;8.50;;;9.30;1.00;;;;;;5054364;28;20432;-63
2023/10/19 06:51:33;;;;;;;12.13;8.20;;;9.30;1.00;;;;;;5053287;28;21045;-63
2023/10/19 06:53:58;;;;;;;13.33;8.57;;;9.30;1.00;;;;;;5054075;28;20953;-66
2023/10/19 06:56:24;;;;;;;12.43;9.53;;;9.30;1.00;;;;;;5053276;28;20390;-63
2023/10/19 06:58:50;;;;;;;11.10;8.73;;;9.30;1.00;;;;;;5054109;28;20164;-63
2023/10/19 07:01:17;;;;;;;10.70;7.27;;;9.30;1.00;;;;;;5053265;28;20797;-65
2023/10/19 07:03:43;;;;;;;9.57;7.70;;;9.30;1.00;;;;;;5052380;28;20172;-66
2023/10/19 07:06:13;;;;;;;9.13;7.27;;;9.40;1.00;;;;;;5052868;28;20498;-63
2023/10/19 07:08:40;;;;;;;9.60;7.97;;;9.40;1.00;;;;;;5053901;28;20900;-66
2023/10/19 07:11:07;;;;;;;10.87;7.73;;;9.40;1.00;;;;;;5053934;28;20440;-63
2023/10/19 07:13:33;;;;;;;8.77;6.97;;;9.40;1.00;;;;;;5053769;28;20551;-65
2023/10/19 07:15:59;;;;;;;11.83;7.90;;;9.40;1.00;;;;;;5051479;28;20421;-67
2023/10/19 07:18:25;;;;;;;10.70;7.40;;;9.40;1.00;;;;;;5053754;28;20400;-63
2023/10/19 07:20:53;;;;;;;12.57;7.23;;;9.40;1.00;;;;;;5053423;28;20406;-67
2023/10/19 07:23:21;;;;;;;14.70;8.17;;;9.40;1.00;;;;;;5052968;28;20634;-65
2023/10/19 07:25:59;;;;;;;7.90;7.13;;;9.40;1.00;;;;;;5052748;28;20420;-63
2023/10/19 07:28:26;;;;;;;11.17;6.97;;;9.40;1.00;;;;;;5053573;28;20411;-63
2023/10/19 07:30:52;;;;;;;12.27;8.07;;;9.50;1.00;;;;;;5053439;28;20467;-64
2023/10/19 07:33:19;;;;;;;7.93;7.17;;;9.50;1.00;;;;;;5053359;28;20431;-64
2023/10/19 07:35:54;;;;;;;9.17;6.60;;;9.40;1.00;;;;;;5051633;28;20400;-62
2023/10/19 07:38:22;;;;;;;11.47;8.00;;;9.50;1.00;;;;;;5053330;28;20464;-66
2023/10/19 07:40:48;;;;;;;15.23;6.97;;;9.50;1.00;;;;;;5052838;28;20725;-63
2023/10/19 07:43:14;;;;;;;12.17;7.20;;;9.50;1.00;;;;;;5052420;28;20382;-66
2023/10/19 07:45:40;;;;;;;9.97;7.90;;;9.50;1.00;;;;;;5052434;28;20376;-62
2023/10/19 07:48:06;;;;;;;12.90;7.70;;;9.60;1.00;;;;;;5053178;28;20167;-64
2023/10/19 07:50:33;;;;;;;9.10;7.83;;;9.60;1.00;;;;;;5053143;28;20171;-69
2023/10/19 07:52:59;;;;;;;10.33;7.77;;;9.60;1.00;;;;;;5053121;28;20461;-63
2023/10/19 07:55:25;;;;;;;14.70;8.17;;;9.60;1.00;;;;;;5052182;28;20760;-63
2023/10/19 07:57:51;;;;;;;10.30;7.10;;;9.70;1.00;;;;;;5052954;28;20194;-67
2023/10/19 08:00:19;;;;;;;9.53;7.13;;;9.60;1.00;;;;;;5051767;28;20393;-64
2023/10/19 08:02:45;;;;;;;12.37;7.83;;;9.70;1.00;;;;;;5051646;28;20503;-63
2023/10/19 08:05:15;;;;;;;13.07;8.83;;;9.70;1.00;;;;;;5051885;28;20437;-64
2023/10/19 08:07:44;;;;;;;8.97;8.00;;;9.70;1.00;;;;;;5052818;28;21017;-64
2023/10/19 08:10:11;;;;;;;8.63;7.03;;;9.70;1.00;;;;;;5052757;28;20390;-63
2023/10/19 08:12:41;;;;;;;10.63;7.67;;;9.70;1.00;;;;;;5052632;28;20423;-63
2023/10/19 08:15:15;;;;;;;8.90;7.30;;;9.60;1.00;;;;;;5052155;28;20407;-64
2023/10/19 08:17:42;;;;;;;10.40;7.17;;;9.60;1.00;;;;;;5052123;28;20499;-68
2023/10/19 08:20:11;;;;;;;7.63;6.60;;;9.70;1.00;;;;;;5052171;28;20379;-63
2023/10/19 08:22:36;;;;;;;11.40;8.00;;;9.70;1.00;;;;;;5052537;28;20503;-66
2023/10/19 08:25:04;;;;;;;7.10;6.40;;;9.70;1.00;;;;;;5051824;28;20484;-63
2023/10/19 08:27:31;;;;;;;12.30;6.70;;;9.70;1.00;;;;;;5042927;28;20257;-63
2023/10/19 08:29:56;;;;;;;10.77;6.73;;;9.70;1.00;;;;;;5032664;28;20383;-63
2023/10/19 08:32:22;;;;;;;10.50;6.73;;;9.70;1.00;;;;;;5032698;28;20408;-63
2023/10/19 08:34:48;;;;;;;9.50;7.20;;;9.70;1.00;;;;;;5031114;28;20159;-63
2023/10/19 08:37:14;;;;;;;12.03;8.10;;;9.70;1.00;;;;;;5031666;28;20544;-64
2023/10/19 08:39:40;;;;;;;7.83;7.00;;;9.80;1.00;;;;;;5031561;28;20520;-63
2023/10/19 08:42:06;;;;;;;7.70;6.90;;;9.80;1.00;;;;;;5032441;28;20411;-65
2023/10/19 08:44:32;;;;;;;8.40;7.47;;;9.80;1.00;;;;;;5032013;28;20171;-73
2023/10/19 08:47:01;;;;;;;7.63;6.83;;;9.80;1.00;;;;;;5033953;28;20523;-64
2023/10/19 08:49:27;;;;;;;12.87;7.80;;;9.70;1.00;;;;;;5036730;28;20885;-64
2023/10/19 08:51:55;;;;;;;9.97;8.23;;;9.70;1.00;;;;;;5036494;28;20405;-64
2023/10/19 08:54:21;;;;;;;9.03;7.90;;;9.70;1.00;;;;;;5036239;28;20361;-63
2023/10/19 08:56:47;;;;;;;11.80;8.63;;;9.70;1.00;;;;;;5035529;28;20454;-64
2023/10/19 08:59:17;;;;;;;12.13;7.80;;;9.80;1.00;;;;;;5035333;28;20804;-63
2023/10/19 09:01:43;;;;;;;7.90;6.97;;;9.80;1.00;;;;;;5036650;28;20384;-65
2023/10/19 09:04:10;;;;;;;9.53;6.83;;;9.80;1.00;;;;;;5040449;28;20452;-65
2023/10/19 09:06:44;;;;;;;8.87;7.93;;;9.70;1.00;;;;;;5035142;28;20422;-64
2023/10/19 09:09:19;;;;;;;9.37;8.37;;;9.70;1.00;;;;;;5036436;28;20896;-64
2023/10/19 09:11:48;;;;;;;9.47;8.23;;;9.60;1.00;;;;;;5036386;28;20582;-63
2023/10/19 09:14:17;;;;;;;14.30;8.40;;;9.50;1.00;;;;;;5035541;28;20791;-67
2023/10/19 09:16:57;;;;;;;11.30;8.03;;;9.40;1.00;;;;;;5034168;28;20912;-64
2023/10/19 09:19:40;;;;;;;13.00;7.27;;;9.40;1.00;;;;;;5035986;28;20368;-63
2023/10/19 09:22:18;;;;;;;16.67;8.43;;;9.40;1.00;;;;;;5035944;28;20901;-65
2023/10/19 09:24:51;;;;;;;11.73;8.30;;;9.40;1.00;;;;;;5035063;28;20852;-65
2023/10/19 09:27:20;;;;;;;11.77;8.60;;;9.50;1.00;;;;;;5034380;28;20802;-64
2023/10/19 09:29:48;;;;;;;9.93;8.30;;;9.40;1.00;;;;;;5035870;28;20405;-65
2023/10/19 09:32:13;;;;;;;13.20;9.37;;;9.40;1.00;;;;;;5035657;28;20485;-66
2023/10/19 09:34:44;;;;;;;10.93;7.90;;;9.40;1.00;;;;;;5034124;28;20406;-64
2023/10/19 09:37:11;;;;;;;10.80;7.97;;;9.50;1.00;;;;;;5034273;28;20198;-64
2023/10/19 09:39:37;;;;;;;12.30;9.10;;;9.50;1.00;;;;;;5036155;28;20456;-63
2023/10/19 09:42:12;;;;;;;11.97;8.60;;;9.50;1.00;;;;;;5035580;28;20732;-65
2023/10/19 09:45:05;;;;;;;9.97;8.93;;;9.50;1.00;;;;;;5034643;28;20413;-63
2023/10/19 09:47:37;;;;;;;15.63;9.00;;;9.60;1.00;;;;;;5035432;28;20429;-63
2023/10/19 09:50:06;;;;;;;14.27;10.17;;;9.60;1.00;;;;;;5034647;28;20398;-64
2023/10/19 09:52:33;;;;;;;11.10;8.70;;;9.60;1.00;;;;;;5035245;28;20511;-63
2023/10/19 09:55:37;;;;;;;18.50;8.80;;;9.70;1.00;;;;;;5034715;28;20902;-62
2023/10/19 09:58:19;;;;;;;14.00;9.73;;;9.70;1.00;;;;;;5034218;28;20420;-64
2023/10/19 10:00:46;;;;;;;16.00;9.93;;;9.80;1.00;;;;;;5035391;28;20873;-66
2023/10/19 10:03:46;;;;;;;12.33;9.50;;;9.80;1.00;;;;;;5035320;28;20430;-62
2023/10/19 10:06:14;;;;;;;10.33;8.67;;;9.70;1.00;;;;;;5033049;28;20432;-64
2023/10/19 10:08:44;;;;;;;16.00;10.00;;;9.80;1.00;;;;;;5035234;28;20368;-63
2023/10/19 10:11:18;;;;;;;12.40;10.17;;;9.70;1.00;;;;;;5033311;28;20389;-63
2023/10/19 10:13:50;;;;;;;14.23;8.97;;;9.60;1.00;;;;;;5034972;28;20457;-64
2023/10/19 10:16:24;;;;;;;17.53;9.53;;;9.60;1.00;;;;;;5034228;28;20481;-64
2023/10/19 10:18:50;;;;;;;12.13;10.30;;;9.70;1.00;;;;;;5035150;28;20904;-65
2023/10/19 10:21:21;;;;;;;11.23;9.93;;;9.60;1.00;;;;;;5035043;28;20373;-66
2023/10/19 10:23:53;;;;;;;18.30;9.07;;;9.60;1.00;;;;;;5034852;28;20380;-65
2023/10/19 10:26:24;;;;;;;9.90;8.43;;;9.60;1.00;;;;;;5033933;28;20515;-64
2023/10/19 10:29:14;;;;;;;14.10;9.40;;;9.60;1.00;;;;;;5034967;28;20386;-66
2023/10/19 10:31:46;;;;;;;15.10;10.23;;;9.60;1.00;;;;;;5033719;28;20790;-63
2023/10/19 10:34:30;;;;;;;10.87;9.73;;;9.60;1.00;;;;;;5034776;28;20437;-64
2023/10/19 10:37:11;;;;;;;13.53;10.03;;;9.60;1.00;;;;;;5034505;28;20389;-63
2023/10/19 10:39:39;;;;;;;17.10;10.00;;;9.60;1.00;;;;;;5034714;28;20397;-63
2023/10/19 10:42:07;;;;;;;14.50;10.53;;;9.70;1.00;;;;;;5034582;28;20857;-63
2023/10/19 10:44:42;;;;;;;11.17;8.37;;;9.60;1.00;;;;;;5033526;28;20398;-70
2023/10/19 10:47:16;;;;;;;11.43;8.43;;;9.60;1.00;;;;;;5034397;28;20387;-63
2023/10/19 10:49:53;;;;;;;13.83;9.77;;;9.60;1.00;;;;;;5034209;28;20391;-66
2023/10/19 10:52:29;;;;;;;14.43;9.50;;;9.60;1.00;;;;;;5034488;28;20977;-64
2023/10/19 10:54:59;;;;;;;12.37;9.40;;;9.60;1.00;;;;;;5033517;28;20372;-63
2023/10/19 10:57:32;;;;;;;13.53;9.10;;;9.70;1.00;;;;;;5034288;28;20456;-62
2023/10/19 11:00:07;;;;;;;19.80;9.50;;;9.70;1.00;;;;;;5034183;28;20377;-62
2023/10/19 11:02:42;;;;;;;12.93;9.90;;;9.60;1.00;;;;;;5034291;28;20454;-63
2023/10/19 11:05:12;;;;;;;13.23;9.33;;;9.60;1.00;;;;;;5033324;28;20959;-64
2023/10/19 11:08:01;;;;;;;19.10;9.40;;;9.60;1.00;;;;;;5033729;28;20467;-63
2023/10/19 11:10:30;;;;;;;14.40;9.80;;;9.60;1.00;;;;;;5032481;28;20400;-63
2023/10/19 11:13:24;;;;;;;14.10;9.53;;;9.50;1.00;;;;;;5034127;28;20435;-63
2023/10/19 11:15:56;;;;;;;11.10;9.10;;;9.50;1.00;;;;;;5032610;28;20403;-62
2023/10/19 11:18:33;;;;;;;15.57;9.87;;;9.50;1.00;;;;;;5034064;28;20433;-65
2023/10/19 11:21:04;;;;;;;12.40;9.20;;;9.60;1.00;;;;;;5034120;28;20405;-64
2023/10/19 11:23:43;;;;;;;17.03;9.43;;;9.60;1.00;;;;;;5033977;28;20386;-63
2023/10/19 11:26:11;;;;;;;14.63;9.17;;;9.60;1.00;;;;;;5032327;28;20400;-66
2023/10/19 11:28:43;;;;;;;14.10;10.10;;;9.70;1.00;;;;;;5033546;28;20415;-64
2023/10/19 11:31:13;;;;;;;11.10;9.77;;;9.60;1.00;;;;;;5032475;28;20917;-64
2023/10/19 11:33:40;;;;;;;13.03;9.40;;;9.60;1.00;;;;;;5033736;28;21031;-62
2023/10/19 11:36:05;;;;;;;10.53;9.10;;;9.60;1.00;;;;;;5032568;28;20514;-63
2023/10/19 11:38:32;;;;;;;19.60;10.27;;;9.70;1.00;;;;;;5032276;28;20514;-64
2023/10/19 11:40:57;;;;;;;12.97;10.47;;;9.70;1.00;;;;;;5033572;28;20221;-62
2023/10/19 11:43:23;;;;;;;12.77;9.20;;;9.70;1.00;;;;;;5033491;28;20377;-63
2023/10/19 11:45:49;;;;;;;14.97;9.77;;;9.80;1.00;;;;;;5031001;28;20180;-64
2023/10/19 11:48:15;;;;;;;13.90;11.23;;;9.70;1.00;;;;;;5033419;28;20195;-64
2023/10/19 11:50:41;;;;;;;18.23;10.60;;;9.70;1.00;;;;;;5033334;28;20171;-62
2023/10/19 11:53:09;;;;;;;14.60;10.57;;;9.70;1.00;;;;;;5033116;28;20519;-64
2023/10/19 11:55:35;;;;;;;13.90;10.37;;;9.60;1.00;;;;;;5032398;28;20246;-64
2023/10/19 11:58:01;;;;;;;14.23;9.83;;;9.60;1.00;;;;;;5032251;28;20509;-63
2023/10/19 12:00:33;;;;;;;14.10;10.33;;;9.60;1.00;;;;;;5032913;28;20186;-63
2023/10/19 12:02:59;;;;;;;11.77;10.53;;;9.50;1.00;;;;;;5032840;28;20174;-63
2023/10/19 12:05:25;;;;;;;15.60;10.80;;;9.50;1.00;;;;;;5032149;28;20441;-64
2023/10/19 12:07:51;;;;;;;21.03;10.33;;;9.60;1.00;;;;;;5032900;28;20400;-63
2023/10/19 12:10:20;;;;;;;17.10;9.50;;;9.60;1.00;;;;;;5033152;28;20229;-63
2023/10/19 12:12:46;;;;;;;11.87;9.53;;;9.50;1.00;;;;;;5032919;28;20464;-64
2023/10/19 12:15:12;;;;;;;12.57;10.00;;;9.60;1.00;;;;;;5032145;28;20377;-62
2023/10/19 12:17:38;;;;;;;24.27;10.50;;;9.60;1.00;;;;;;5031471;28;20437;-63
2023/10/19 12:20:06;;;;;;;16.30;10.73;;;9.60;1.00;;;;;;5031201;28;20978;-63
2023/10/19 12:22:36;;;;;;;14.70;9.93;;;9.60;1.00;;;;;;5031622;28;20381;-66
2023/10/19 12:25:02;;;;;;;18.33;10.93;;;9.70;1.00;;;;;;5031628;28;20395;-64
2023/10/19 12:27:28;;;;;;;15.70;10.27;;;9.60;1.00;;;;;;5032865;28;20422;-63
2023/10/19 12:29:54;;;;;;;18.93;10.27;;;9.60;2.00;;;;;;5032908;28;20389;-64
2023/10/19 12:32:21;;;;;;;12.90;10.97;;;9.50;1.40;;;;;;5031494;28;20439;-66
2023/10/19 12:34:52;;;;;;;16.43;10.63;;;9.50;4.90;;;;;;5030623;28;20179;-62
2023/10/19 12:37:18;;;;;;;16.23;12.10;;;9.50;18.10;;;;;;5032688;28;20437;-63
2023/10/19 12:39:47;;;;;;;20.47;11.53;;;9.40;23.40;;;;;;5031813;28;20416;-64
2023/10/19 12:42:14;;;;;;;17.40;9.50;;;9.40;32.60;;;;;;5031945;28;20907;-63
2023/10/19 12:44:41;;;;;;;12.90;10.00;;;9.40;52.40;;;;;;5031839;28;20381;-66
2023/10/19 12:47:12;;;;;;;17.63;10.13;;;9.40;66.10;;;;;;5032707;28;20461;-64
2023/10/19 12:49:39;;;;;;;18.23;11.93;;;9.30;72.40;;;;;;5032715;28;20406;-64
2023/10/19 12:52:07;;;;;;;16.90;11.03;;;9.30;87.30;;;;;;5032507;28;20414;-63
2023/10/19 12:54:34;;;;;;;13.13;11.37;;;9.20;92.10;;;;;;5031858;28;20410;-70
2023/10/19 12:57:00;;;;;;;14.93;11.20;;;9.20;92.10;;;;;;5032607;28;20824;-63
2023/10/19 12:59:26;;;;;;;15.90;11.83;;;9.20;99.90;;;;;;5032645;28;20397;-63
2023/10/19 13:01:57;;;;;;;13.60;10.53;;;9.20;99.90;;;;;;5031721;28;20408;-65
2023/10/19 13:04:24;;;;;;;14.60;10.87;;;9.20;99.90;;;;;;5032267;28;20191;-70
2023/10/19 13:06:57;;;;;;;14.93;12.43;;;9.20;99.90;;;;;;5030705;28;20418;-65
2023/10/19 13:09:32;;;;;;;20.30;13.73;;;9.20;99.90;;;;;;5032551;28;20429;-63
2023/10/19 13:11:58;;;;;;;14.00;11.60;;;9.20;99.90;;;;;;5031204;28;20385;-64
2023/10/19 13:14:25;;;;;;;13.60;11.07;;;9.20;99.90;;;;;;5032289;28;20376;-66
2023/10/19 13:16:51;;;;;;;18.77;13.60;;;9.10;99.90;;;;;;5030634;28;20442;-63
2023/10/19 13:19:20;;;;;;;19.67;13.30;;;9.20;99.90;;;;;;5032399;28;20495;-63
2023/10/19 13:21:49;;;;;;;15.33;11.70;;;9.10;99.90;;;;;;5031548;28;20414;-64
2023/10/19 13:24:16;;;;;;;15.93;12.53;;;9.20;99.90;;;;;;5032425;28;20760;-63
2023/10/19 13:26:45;;;;;;;17.03;12.70;;;9.10;99.90;;;;;;5031493;28;20490;-64
2023/10/19 13:29:11;;;;;;;15.20;11.30;;;9.20;99.90;;;;;;5032277;28;20884;-66
2023/10/19 13:31:37;;;;;;;15.27;12.07;;;9.20;99.90;;;;;;5032343;28;20414;-66
2023/10/19 13:34:04;;;;;;;14.53;11.00;;;9.20;99.90;;;;;;5033847;28;20217;-64
2023/10/19 13:36:30;;;;;;;14.30;11.17;;;9.30;99.90;;;;;;5035019;28;20268;-64
2023/10/19 13:38:55;;;;;;;14.50;11.97;;;9.20;99.90;;;;;;5034804;28;20418;-64